Messina, Italy

10:35 PM CET on March 06, 2015 (GMT +0100)
Messina centro | Change Station
CLOSE
Current Station
Personal Weather Station
Location: Messina, SICILIA
Elevation: 72 ft
Nearby Weather Stations
Active Advisory: Wind

Elev 72 ft 38.18 °N, 15.56 °E | Updated 1 second ago

Mostly Cloudy
Mostly Cloudy
52.8 °F
Feels Like 52.8 °F
N
0.0
Wind Variable Wind from South
Gusts 2.0 mph

Today
High -- | Low -- °F
--% Chance of Precip.
Yesterday
High -- | Low -- °F
Precip. -- in
6:23 AM 5:55 PM
Full, 99% visible
Pressure 29.98 in
Visibility 6.2 miles
Clouds Few 2500 ft
Mostly Cloudy 5000 ft
Dew Point 43 °F
Humidity 70%
Rainfall in
Snow Depth Not available.
UV 0 out of 12
Pollen Not available.
Air Quality Not available.
Flu Activity Not available.
METAR LICC 062120Z 34006KT 310V010 9999 FEW025 BKN050 09/06 Q1015

More Conditions Fewer Conditions

Pressure 29.98 in
Visibility 6.2 miles
Clouds Few 2500 ft
Mostly Cloudy 5000 ft
Dew Point 43 °F
Humidity 70%
Rainfall in
Snow Depth Not available.
UV 0 out of 12
Pollen Not available.
Air Quality Not available.
Flu Activity Not available.
METAR LICC 062120Z 34006KT 310V010 9999 FEW025 BKN050 09/06 Q1015

More Conditions Fewer Conditions

10-Day Weather Forecast

Almanac

Astronomy

Mar. 06, 2015 Rise Set
Actual Time
Civil Twilight
Nautical Twilight
Astronomical Twilight
Moon
Length of Visible Light
Length of Day
Tomorrow will be .
, % of the Moon is Illuminated

Today's Extremes

Country Highs Country Lows

Community

WunderPhotos

Upload Photos

1,803,406 photos uploaded!

WunderBlogs® & News

Nearby

Air Quality

  Air Quality AQ Index Pollutant
Not available.

Snow Depth

Station Depth Elevation

Earthquake Activity

City Distance Mag. Time & Date
Minimum magnitude displayed is 2.5.

Coastal Water Temperatures

Place Temperature

Nearby Weather Stations